createdAt,value
2022-08-07T00:00:31.201Z,101559.44
2022-08-07T00:02:57.915Z,101562.09
2022-08-07T00:05:26.225Z,101557.81
2022-08-07T00:07:59.537Z,101563.41
2022-08-07T00:10:30.030Z,101563.69
2022-08-07T00:13:09.730Z,101562.09
2022-08-07T00:15:51.035Z,101560.50
2022-08-07T00:18:24.585Z,101563.94
2022-08-07T00:20:57.392Z,101558.50
2022-08-07T00:23:30.190Z,101578.78
2022-08-07T00:26:00.198Z,101568.25
2022-08-07T00:28:33.173Z,101564.69
2022-08-07T00:31:06.303Z,101571.81
2022-08-07T00:33:40.582Z,101572.59
2022-08-07T00:36:08.425Z,101572.66
2022-08-07T00:38:36.813Z,101574.47
2022-08-07T00:41:09.966Z,101564.69
2022-08-07T00:44:01.309Z,101576.19
2022-08-07T00:46:29.209Z,101574.41
2022-08-07T00:49:02.170Z,101583.25
2022-08-07T00:51:57.603Z,101571.81
2022-08-07T00:54:19.955Z,101581.66
2022-08-07T00:56:49.789Z,101583.53
2022-08-07T00:59:18.087Z,101587.09
2022-08-07T01:01:48.635Z,101584.56
2022-08-07T01:04:24.690Z,101588.28
2022-08-07T01:06:52.121Z,101583.13
2022-08-07T01:10:03.932Z,101594.84
2022-08-07T01:12:28.768Z,101583.28
2022-08-07T01:15:01.468Z,101579.81
2022-08-07T01:17:31.122Z,101586.78
2022-08-07T01:20:04.217Z,101589.38
2022-08-07T01:22:31.409Z,101589.25
2022-08-07T01:24:59.840Z,101590.19
2022-08-07T01:27:32.041Z,101594.59
2022-08-07T01:29:59.897Z,101589.34
2022-08-07T01:32:27.534Z,101590.28
2022-08-07T01:34:56.106Z,101585.84
2022-08-07T01:37:24.541Z,101588.50
2022-08-07T01:39:52.154Z,101588.63
2022-08-07T01:42:37.628Z,101588.63
2022-08-07T01:45:10.018Z,101596.50
2022-08-07T01:48:18.401Z,101599.19
2022-08-07T01:50:32.650Z,101592.19
2022-08-07T01:53:01.375Z,101597.44
2022-08-07T01:55:44.300Z,101590.28
2022-08-07T01:58:29.287Z,101591.19
2022-08-07T02:01:09.872Z,101593.84
2022-08-07T02:04:01.133Z,101592.22
2022-08-07T02:06:31.905Z,101591.44
2022-08-07T02:09:04.381Z,101597.56
2022-08-07T02:12:04.139Z,101591.38
2022-08-07T02:14:36.117Z,101592.13
2022-08-07T02:17:07.998Z,101604.47
2022-08-07T02:20:05.177Z,101599.03
2022-08-07T02:22:30.917Z,101609.63
2022-08-07T02:24:59.520Z,101607.19
2022-08-07T02:27:34.595Z,101612.72
2022-08-07T02:30:04.001Z,101607.56
2022-08-07T02:32:39.422Z,101613.91
2022-08-07T02:36:30.865Z,101609.47
2022-08-07T02:38:16.056Z,101619.44
2022-08-07T02:40:46.463Z,101616.00
2022-08-07T02:43:16.100Z,101617.75
2022-08-07T02:46:00.659Z,101615.91
2022-08-07T02:48:30.323Z,101616.75
2022-08-07T02:51:01.602Z,101616.88
2022-08-07T02:53:39.016Z,101613.44
2022-08-07T02:56:17.622Z,101616.22
2022-08-07T02:58:51.539Z,101609.28
2022-08-07T03:01:35.961Z,101611.13
2022-08-07T03:04:12.626Z,101608.53
2022-08-07T03:06:45.742Z,101609.38
2022-08-07T03:09:13.867Z,101616.44
2022-08-07T03:11:52.218Z,101621.00
2022-08-07T03:14:26.110Z,101621.03
2022-08-07T03:16:55.296Z,101624.69
2022-08-07T03:19:22.834Z,101622.94
2022-08-07T03:21:51.273Z,101620.22
2022-08-07T03:24:27.421Z,101623.75
2022-08-07T03:26:59.632Z,101621.91
2022-08-07T03:29:46.125Z,101621.91
2022-08-07T03:32:19.224Z,101620.06
2022-08-07T03:35:00.900Z,101625.28
2022-08-07T03:37:46.015Z,101630.50
2022-08-07T03:40:20.381Z,101626.84
2022-08-07T03:42:50.323Z,101637.47
2022-08-07T03:45:30.359Z,101634.78
2022-08-07T03:47:59.741Z,101637.34
2022-08-07T03:50:28.558Z,101642.69
2022-08-07T03:52:59.198Z,101635.66
2022-08-07T03:55:53.372Z,101641.84
2022-08-07T03:58:32.612Z,101645.31
2022-08-07T04:01:03.658Z,101649.63
2022-08-07T04:03:49.602Z,101647.78
2022-08-07T04:06:37.740Z,101658.34
2022-08-07T04:09:06.544Z,101652.91
2022-08-07T04:12:25.181Z,101658.13
2022-08-07T04:14:38.170Z,101649.13
2022-08-07T04:17:19.868Z,101650.00
2022-08-07T04:19:57.604Z,101649.00
2022-08-07T04:22:28.941Z,101655.19
2022-08-07T04:24:58.362Z,101655.00
2022-08-07T04:27:26.420Z,101654.00
2022-08-07T04:30:01.507Z,101650.38
2022-08-07T04:32:34.708Z,101658.25
2022-08-07T04:35:03.879Z,101659.00
2022-08-07T04:37:40.383Z,101668.63
2022-08-07T04:40:20.787Z,101664.91
2022-08-07T04:42:52.430Z,101672.72
2022-08-07T04:45:22.802Z,101669.94
2022-08-07T04:48:16.376Z,101667.16
2022-08-07T04:51:03.340Z,101661.75
2022-08-07T04:54:00.943Z,101662.50
2022-08-07T04:58:12.233Z,101666.66
2022-08-07T05:00:12.395Z,101663.75
2022-08-07T05:02:34.165Z,101662.50
2022-08-07T05:05:53.857Z,101659.59
2022-08-07T05:08:59.850Z,101666.41
2022-08-07T05:11:58.610Z,101666.16
2022-08-07T05:14:55.861Z,101668.59
2022-08-07T05:17:52.638Z,101664.00
2022-08-07T05:20:17.178Z,101661.13
2022-08-07T05:22:46.642Z,101664.53
2022-08-07T05:25:25.590Z,101659.03
2022-08-07T05:28:20.287Z,101660.50
2022-08-07T05:30:54.697Z,101661.16
2022-08-07T05:33:23.715Z,101665.44
2022-08-07T05:35:53.534Z,101659.84
2022-08-07T05:39:00.607Z,101663.31
2022-08-07T05:41:14.092Z,101662.19
2022-08-07T05:44:07.629Z,101662.94
2022-08-07T05:46:34.937Z,101666.13
2022-08-07T05:49:11.665Z,101672.22
2022-08-07T05:51:46.377Z,101666.69
2022-08-07T05:54:30.718Z,101669.22
2022-08-07T05:57:02.647Z,101668.16
2022-08-07T05:59:38.998Z,101665.34
2022-08-07T06:02:29.292Z,101668.84
2022-08-07T06:05:03.489Z,101672.16
2022-08-07T06:08:09.079Z,101670.16
2022-08-07T06:10:18.782Z,101678.84
2022-08-07T06:12:47.376Z,101667.94
2022-08-07T06:15:16.218Z,101673.09
2022-08-07T06:17:50.708Z,101669.31
2022-08-07T06:20:25.619Z,101670.84
2022-08-07T06:23:25.003Z,101666.16
2022-08-07T06:25:57.016Z,101672.97
2022-08-07T06:28:27.542Z,101676.31
2022-08-07T06:30:55.633Z,101669.81
2022-08-07T06:33:24.312Z,101679.47
2022-08-07T06:36:12.917Z,101673.94
2022-08-07T06:38:38.218Z,101684.34
2022-08-07T06:41:15.832Z,101684.13
2022-08-07T06:44:01.390Z,101680.50
2022-08-07T06:46:35.265Z,101687.44
2022-08-07T06:49:04.395Z,101687.16
2022-08-07T06:51:34.681Z,101677.00
2022-08-07T06:55:30.027Z,101682.19
2022-08-07T06:56:51.274Z,101678.34
2022-08-07T07:00:13.312Z,101677.91
2022-08-07T07:02:15.561Z,101680.34
2022-08-07T07:05:02.773Z,101691.78
2022-08-07T07:07:59.314Z,101693.47
2022-08-07T07:10:27.030Z,101698.59
2022-08-07T07:12:58.787Z,101691.34
2022-08-07T07:15:32.688Z,101691.91
2022-08-07T07:18:10.157Z,101703.19
2022-08-07T07:20:41.598Z,101699.41
2022-08-07T07:24:06.370Z,101703.47
2022-08-07T07:26:35.008Z,101694.06
2022-08-07T07:29:28.605Z,101703.22
2022-08-07T07:31:48.046Z,101700.94
2022-08-07T07:34:22.317Z,101706.63
2022-08-07T07:37:05.499Z,101703.53
2022-08-07T07:39:52.218Z,101703.06
2022-08-07T07:42:32.546Z,101699.97
2022-08-07T07:45:02.525Z,101702.72
2022-08-07T07:47:30.527Z,101708.03
2022-08-07T07:50:35.972Z,101705.44
2022-08-07T07:53:20.511Z,101705.00
2022-08-07T07:55:57.814Z,101707.28
2022-08-07T07:58:37.012Z,101703.25
2022-08-07T08:02:02.804Z,101704.97
2022-08-07T08:04:09.797Z,101704.38
2022-08-07T08:06:39.562Z,101706.16
2022-08-07T08:09:08.227Z,101706.78
2022-08-07T08:11:59.878Z,101716.25
2022-08-07T08:14:26.438Z,101711.31
2022-08-07T08:16:56.123Z,101709.22
2022-08-07T08:20:17.366Z,101704.81
2022-08-07T08:22:55.724Z,101706.88
2022-08-07T08:25:49.385Z,101716.75
2022-08-07T08:28:37.889Z,101713.22
2022-08-07T08:31:16.274Z,101713.84
2022-08-07T08:33:55.870Z,101713.66
2022-08-07T08:36:30.630Z,101711.84
2022-08-07T08:39:00.074Z,101722.66
2022-08-07T08:41:59.022Z,101710.97
2022-08-07T08:44:44.355Z,101712.88
2022-08-07T08:47:25.220Z,101713.47
2022-08-07T08:50:39.158Z,101713.81
2022-08-07T08:53:14.858Z,101715.88
2022-08-07T08:55:58.616Z,101704.69
2022-08-07T08:58:50.526Z,101702.69
2022-08-07T09:01:29.565Z,101699.25
2022-08-07T09:04:15.022Z,101702.00
2022-08-07T09:06:52.315Z,101711.47
2022-08-07T09:10:00.179Z,101703.81
2022-08-07T09:12:54.326Z,101702.94
2022-08-07T09:16:25.928Z,101694.69
2022-08-07T09:18:53.189Z,101695.09
2022-08-07T09:22:09.849Z,101698.03
2022-08-07T09:24:59.347Z,101693.63
2022-08-07T09:27:59.425Z,101698.25
2022-08-07T09:30:37.333Z,101701.16
2022-08-07T09:33:40.797Z,101700.75
2022-08-07T09:36:16.843Z,101694.13
2022-08-07T09:38:50.237Z,101696.44
2022-08-07T09:42:02.936Z,101693.06
2022-08-07T09:47:59.450Z,101693.19
2022-08-07T09:50:32.994Z,101690.56
2022-08-07T09:53:09.698Z,101699.44
2022-08-07T09:56:03.631Z,101689.97
2022-08-07T09:59:18.838Z,101691.19
2022-08-07T10:02:01.552Z,101691.88
2022-08-07T10:04:53.078Z,101688.03
2022-08-07T10:07:31.742Z,101687.72
2022-08-07T10:11:00.215Z,101682.19
2022-08-07T10:14:00.458Z,101680.28
2022-08-07T10:16:47.381Z,101687.84
2022-08-07T10:19:42.441Z,101682.72
2022-08-07T10:22:15.489Z,101675.94
2022-08-07T10:24:59.601Z,101681.06
2022-08-07T10:27:46.659Z,101670.72
2022-08-07T10:30:26.422Z,101669.34
2022-08-07T10:34:05.601Z,101666.63
2022-08-07T10:36:30.771Z,101681.75
2022-08-07T10:39:16.037Z,101671.94
2022-08-07T10:42:00.254Z,101670.97
2022-08-07T10:44:54.655Z,101673.16
2022-08-07T10:47:52.672Z,101666.38
2022-08-07T10:50:31.420Z,101662.50
2022-08-07T10:53:12.944Z,101660.22
2022-08-07T10:56:03.227Z,101647.91
2022-08-07T10:58:45.943Z,101653.53
2022-08-07T11:01:35.734Z,101659.72
2022-08-07T11:04:41.499Z,101659.16
2022-08-07T11:07:58.320Z,101653.34
2022-08-07T11:10:20.215Z,101663.50
2022-08-07T11:13:02.246Z,101657.00
2022-08-07T11:15:34.856Z,101652.88
2022-08-07T11:18:05.194Z,101654.81
2022-08-07T11:20:42.044Z,101652.22
2022-08-07T11:23:50.451Z,101645.09
2022-08-07T11:26:38.651Z,101655.06
2022-08-07T11:29:42.612Z,101646.59
2022-08-07T11:32:25.414Z,101651.06
2022-08-07T11:34:58.736Z,101650.19
2022-08-07T11:37:57.951Z,101653.53
2022-08-07T11:40:49.831Z,101655.38
2022-08-07T11:43:41.635Z,101661.91
2022-08-07T11:46:40.689Z,101651.69
2022-08-07T11:50:25.293Z,101657.22
2022-08-07T11:52:37.711Z,101648.78
2022-08-07T11:55:18.899Z,101648.34
2022-08-07T11:58:16.217Z,101640.13
2022-08-07T12:01:07.595Z,101638.59
2022-08-07T12:03:53.180Z,101639.66
2022-08-07T12:06:55.364Z,101642.84
2022-08-07T12:09:46.779Z,101649.91
2022-08-07T12:12:41.425Z,101640.50
2022-08-07T12:15:46.158Z,101639.94
2022-08-07T12:18:33.875Z,101645.75
2022-08-07T12:21:55.183Z,101653.31
2022-08-07T12:24:36.894Z,101654.44
2022-08-07T12:27:27.887Z,101644.16
2022-08-07T12:30:07.503Z,101634.06
2022-08-07T12:32:55.720Z,101634.38
2022-08-07T12:35:24.697Z,101643.50
2022-08-07T12:38:11.721Z,101639.09
2022-08-07T12:40:48.894Z,101635.94
2022-08-07T12:44:01.966Z,101635.69
2022-08-07T12:46:40.495Z,101632.84
2022-08-07T12:49:44.812Z,101627.06
2022-08-07T12:52:29.431Z,101629.78
2022-08-07T12:55:22.283Z,101638.91
2022-08-07T12:58:10.040Z,101630.81
2022-08-07T13:01:07.815Z,101625.47
2022-08-07T13:04:09.832Z,101627.84
2022-08-07T13:07:00.869Z,101625.09
2022-08-07T13:10:29.189Z,101623.25
2022-08-07T13:12:54.809Z,101634.72
2022-08-07T13:15:37.087Z,101622.41
2022-08-07T13:18:38.466Z,101627.31
2022-08-07T13:21:35.061Z,101623.88
2022-08-07T13:24:29.354Z,101626.69
2022-08-07T13:27:10.489Z,101623.88
2022-08-07T13:29:53.726Z,101621.66
2022-08-07T13:32:41.005Z,101625.03
2022-08-07T13:35:21.111Z,101627.72
2022-08-07T13:38:06.854Z,101628.66
2022-08-07T13:41:04.430Z,101631.13
2022-08-07T13:43:41.325Z,101625.00
2022-08-07T13:46:22.194Z,101622.50
2022-08-07T13:48:59.297Z,101627.91
2022-08-07T13:52:05.482Z,101617.47
2022-08-07T13:54:23.790Z,101618.59
2022-08-07T13:56:56.293Z,101617.38
2022-08-07T13:59:32.492Z,101618.59
2022-08-07T14:02:10.485Z,101621.53
2022-08-07T14:05:00.289Z,101614.41
2022-08-07T14:07:31.916Z,101620.22
2022-08-07T14:10:17.590Z,101620.31
2022-08-07T14:12:55.771Z,101620.81
2022-08-07T14:15:42.600Z,101612.28
2022-08-07T14:18:27.704Z,101618.63
2022-08-07T14:21:20.953Z,101611.56
2022-08-07T14:24:06.633Z,101619.38
2022-08-07T14:26:50.416Z,101607.56
2022-08-07T14:30:07.714Z,101608.03
2022-08-07T14:32:10.305Z,101607.22
2022-08-07T14:34:47.185Z,101608.59
2022-08-07T14:37:17.400Z,101602.94
2022-08-07T14:40:16.979Z,101601.31
2022-08-07T14:43:55.128Z,101608.56
2022-08-07T14:45:48.754Z,101603.94
2022-08-07T14:48:19.953Z,101610.31
2022-08-07T14:50:55.153Z,101595.41
2022-08-07T14:54:03.801Z,101603.97
2022-08-07T14:56:15.746Z,101602.69
2022-08-07T14:59:02.114Z,101606.44
2022-08-07T15:01:42.918Z,101611.09
2022-08-07T15:04:19.117Z,101607.84
2022-08-07T15:06:48.914Z,101600.41
2022-08-07T15:12:25.950Z,101600.81
2022-08-07T15:13:05.805Z,101608.38
2022-08-07T15:15:09.203Z,101600.38
2022-08-07T15:17:58.437Z,101609.00
2022-08-07T15:20:55.624Z,101605.44
2022-08-07T15:25:14.759Z,101604.00
2022-08-07T15:32:02.778Z,101601.53
2022-08-07T15:34:37.726Z,101601.88
2022-08-07T15:37:27.739Z,101601.50
2022-08-07T15:39:58.293Z,101589.00
2022-08-07T15:42:46.447Z,101598.69
2022-08-07T15:48:27.105Z,101591.69
2022-08-07T15:51:08.455Z,101591.44
2022-08-07T15:53:52.927Z,101594.16
2022-08-07T15:56:24.697Z,101595.66
2022-08-07T15:58:58.801Z,101593.72
2022-08-07T16:01:40.363Z,101585.13
2022-08-07T16:04:15.780Z,101590.06
2022-08-07T16:06:42.416Z,101602.03
2022-08-07T16:09:22.629Z,101598.13
2022-08-07T16:12:02.228Z,101596.31
2022-08-07T16:14:53.474Z,101595.56
2022-08-07T16:18:00.945Z,101597.38
2022-08-07T16:21:42.974Z,101598.16
2022-08-07T16:24:09.141Z,101594.56
2022-08-07T16:27:18.075Z,101599.50
2022-08-07T16:30:30.781Z,101593.94
2022-08-07T16:34:01.722Z,101584.00
2022-08-07T16:36:31.146Z,101587.69
2022-08-07T16:39:10.504Z,101587.69
2022-08-07T16:42:21.729Z,101583.66
2022-08-07T16:45:15.105Z,101585.47
2022-08-07T16:48:27.728Z,101586.50
2022-08-07T16:52:01.754Z,101591.38
2022-08-07T16:54:33.123Z,101592.16
2022-08-07T16:57:15.340Z,101598.19
2022-08-07T17:00:15.290Z,101592.50
2022-08-07T17:03:58.029Z,101594.69
2022-08-07T17:06:45.858Z,101601.56
2022-08-07T17:10:08.509Z,101605.63
2022-08-07T17:12:35.956Z,101609.09
2022-08-07T17:15:07.819Z,101602.69
2022-08-07T17:17:47.378Z,101605.53
2022-08-07T17:20:30.878Z,101601.34
2022-08-07T17:23:08.756Z,101605.69
2022-08-07T17:26:24.133Z,101599.38
2022-08-07T17:28:58.171Z,101605.69
2022-08-07T17:31:33.927Z,101605.16
2022-08-07T17:34:35.027Z,101608.69
2022-08-07T17:38:06.456Z,101611.69
2022-08-07T17:40:19.017Z,101601.66
2022-08-07T17:43:17.866Z,101613.31
2022-08-07T17:45:55.055Z,101613.59
2022-08-07T17:48:39.407Z,101614.78
2022-08-07T17:51:21.657Z,101621.56
2022-08-07T17:54:39.812Z,101620.56
2022-08-07T17:57:20.951Z,101623.47
2022-08-07T17:59:52.994Z,101623.72
2022-08-07T18:02:32.885Z,101628.06
2022-08-07T18:05:21.350Z,101626.44
2022-08-07T18:08:03.299Z,101622.97
2022-08-07T18:11:53.684Z,101621.34
2022-08-07T18:13:41.458Z,101622.19
2022-08-07T18:16:33.269Z,101626.75
2022-08-07T18:21:07.143Z,101627.94
2022-08-07T18:22:26.227Z,101624.38
2022-08-07T18:25:18.989Z,101634.06
2022-08-07T18:28:21.538Z,101640.72
2022-08-07T18:31:05.757Z,101638.19
2022-08-07T18:34:35.794Z,101638.81
2022-08-07T18:38:55.110Z,101642.31
2022-08-07T18:40:42.795Z,101642.94
2022-08-07T18:43:42.855Z,101649.16
2022-08-07T18:46:42.895Z,101645.22
2022-08-07T18:50:30.244Z,101654.66
2022-08-07T18:52:38.049Z,101656.00
2022-08-07T18:55:41.687Z,101659.38
2022-08-07T18:58:22.532Z,101658.44
2022-08-07T19:02:17.171Z,101660.34
2022-08-07T19:04:32.175Z,101660.53
2022-08-07T19:07:14.611Z,101671.47
2022-08-07T19:10:10.971Z,101670.13
2022-08-07T19:13:10.306Z,101672.19
2022-08-07T19:17:01.178Z,101664.41
2022-08-07T19:19:07.682Z,101667.56
2022-08-07T19:21:56.151Z,101671.75
2022-08-07T19:24:34.442Z,101675.09
2022-08-07T19:28:29.287Z,101676.47
2022-08-07T19:31:00.765Z,101681.34
2022-08-07T19:32:46.142Z,101681.69
2022-08-07T19:35:25.748Z,101680.31
2022-08-07T19:37:58.512Z,101684.16
2022-08-07T19:40:31.874Z,101676.38
2022-08-07T19:43:12.884Z,101681.75
2022-08-07T19:46:09.272Z,101678.44
2022-08-07T19:48:42.238Z,101691.97
2022-08-07T19:51:50.920Z,101685.91
2022-08-07T19:54:33.334Z,101687.81
2022-08-07T19:58:00.369Z,101690.66
2022-08-07T19:59:45.909Z,101683.72
2022-08-07T20:02:19.846Z,101696.38
2022-08-07T20:04:58.074Z,101700.16
2022-08-07T20:07:46.451Z,101695.22
2022-08-07T20:10:36.510Z,101693.72
2022-08-07T20:13:22.446Z,101695.81
2022-08-07T20:15:57.640Z,101701.53
2022-08-07T20:18:33.766Z,101699.16
2022-08-07T20:21:14.365Z,101698.63
2022-08-07T20:23:53.857Z,101700.72
2022-08-07T20:26:29.830Z,101704.59
2022-08-07T20:29:17.101Z,101702.22
2022-08-07T20:32:01.189Z,101697.91
2022-08-07T20:34:49.444Z,101698.09
2022-08-07T20:37:23.466Z,101701.78
2022-08-07T20:40:02.179Z,101704.63
2022-08-07T20:42:34.531Z,101702.91
2022-08-07T20:46:24.387Z,101701.19
2022-08-07T20:47:59.642Z,101704.78
2022-08-07T20:50:30.358Z,101704.03
2022-08-07T20:52:57.754Z,101709.72
2022-08-07T20:55:27.346Z,101709.97
2022-08-07T20:58:03.482Z,101715.50
2022-08-07T21:00:50.630Z,101714.84
2022-08-07T21:03:23.127Z,101706.91
2022-08-07T21:06:21.809Z,101720.59
2022-08-07T21:09:07.458Z,101716.31
2022-08-07T21:11:50.434Z,101719.22
2022-08-07T21:14:32.515Z,101721.19
2022-08-07T21:18:02.308Z,101721.19
2022-08-07T21:20:06.910Z,101718.50
2022-08-07T21:22:44.735Z,101723.81
2022-08-07T21:25:20.255Z,101720.97
2022-08-07T21:28:01.761Z,101721.75
2022-08-07T21:30:44.155Z,101726.09
2022-08-07T21:33:24.578Z,101732.72
2022-08-07T21:36:32.359Z,101731.94
2022-08-07T21:39:45.292Z,101731.94
2022-08-07T21:42:42.933Z,101725.16
2022-08-07T21:46:07.643Z,101737.06
2022-08-07T21:48:28.514Z,101731.91
2022-08-07T21:51:32.212Z,101734.69
2022-08-07T21:54:27.615Z,101735.78
2022-08-07T21:57:39.676Z,101734.91
2022-08-07T22:00:22.315Z,101738.63
2022-08-07T22:02:59.162Z,101738.06
2022-08-07T22:05:45.138Z,101745.28
2022-08-07T22:08:18.407Z,101742.69
2022-08-07T22:10:49.697Z,101749.06
2022-08-07T22:13:24.413Z,101745.81
2022-08-07T22:16:42.068Z,101746.97
2022-08-07T22:19:12.077Z,101744.53
2022-08-07T22:22:02.126Z,101751.75
2022-08-07T22:24:38.037Z,101753.53
2022-08-07T22:28:07.947Z,101752.66
2022-08-07T22:30:26.464Z,101750.91
2022-08-07T22:33:05.971Z,101755.50
2022-08-07T22:35:51.039Z,101757.34
2022-08-07T22:38:25.668Z,101759.97
2022-08-07T22:41:07.629Z,101759.91
2022-08-07T22:43:51.312Z,101760.91
2022-08-07T22:47:03.426Z,101768.16
2022-08-07T22:49:54.941Z,101756.72
2022-08-07T22:52:36.674Z,101763.97
2022-08-07T22:55:23.264Z,101764.09
2022-08-07T22:58:21.637Z,101760.63
2022-08-07T23:00:54.257Z,101764.25
2022-08-07T23:03:58.220Z,101771.50
2022-08-07T23:06:41.524Z,101762.75
2022-08-07T23:10:05.257Z,101768.41
2022-08-07T23:12:41.447Z,101771.16
2022-08-07T23:16:06.832Z,101770.28
2022-08-07T23:18:28.641Z,101771.31
2022-08-07T23:21:26.414Z,101775.84
2022-08-07T23:24:05.782Z,101777.78
2022-08-07T23:26:55.071Z,101769.84
2022-08-07T23:30:38.282Z,101767.22
2022-08-07T23:34:36.090Z,101768.16
2022-08-07T23:36:17.331Z,101764.03
2022-08-07T23:39:01.864Z,101780.50
2022-08-07T23:42:01.491Z,101782.31
2022-08-07T23:44:40.302Z,101775.03
2022-08-07T23:47:10.553Z,101773.06
2022-08-07T23:50:02.519Z,101771.25
2022-08-07T23:53:08.780Z,101772.94
2022-08-07T23:55:54.049Z,101776.47
2022-08-07T23:58:36.280Z,101781.97
